createdAt,value
2019-01-26T00:01:41.489Z,-2.32
2019-01-26T00:04:11.254Z,-2.33
2019-01-26T00:06:40.972Z,-2.31
2019-01-26T00:09:10.995Z,-2.30
2019-01-26T00:11:40.774Z,-2.29
2019-01-26T00:14:10.404Z,-2.26
2019-01-26T00:16:40.047Z,-2.22
2019-01-26T00:19:10.181Z,-2.20
2019-01-26T00:21:39.724Z,-2.19
2019-01-26T00:24:09.282Z,-2.16
2019-01-26T00:26:39.254Z,-2.14
2019-01-26T00:29:08.816Z,-2.14
2019-01-26T00:31:38.495Z,-2.15
2019-01-26T00:34:08.139Z,-2.14
2019-01-26T00:36:37.685Z,-2.12
2019-01-26T00:39:08.881Z,-2.10
2019-01-26T00:41:38.535Z,-2.05
2019-01-26T00:44:08.098Z,-2.03
2019-01-26T00:46:37.649Z,-2.00
2019-01-26T00:49:07.331Z,-1.95
2019-01-26T00:51:36.888Z,-1.91
2019-01-26T00:54:06.590Z,-1.88
2019-01-26T00:56:36.262Z,-1.84
2019-01-26T00:59:06.067Z,-1.80
2019-01-26T01:01:35.695Z,-1.80
2019-01-26T01:04:06.015Z,-1.79
2019-01-26T01:06:35.640Z,-1.78
2019-01-26T01:09:08.567Z,-1.78
2019-01-26T01:11:38.128Z,-1.79
2019-01-26T01:14:07.934Z,-1.78
2019-01-26T01:16:37.549Z,-1.77
2019-01-26T01:19:07.562Z,-1.74
2019-01-26T01:21:37.230Z,-1.73
2019-01-26T01:24:06.823Z,-1.68
2019-01-26T01:26:36.494Z,-1.64
2019-01-26T01:29:06.264Z,-1.60
2019-01-26T01:31:35.815Z,-1.59
2019-01-26T01:34:05.562Z,-1.60
2019-01-26T01:36:35.121Z,-1.61
2019-01-26T01:39:08.060Z,-1.58
2019-01-26T01:41:37.660Z,-1.59
2019-01-26T01:44:07.331Z,-1.60
2019-01-26T01:46:42.854Z,-1.63
2019-01-26T01:49:08.445Z,-1.64
2019-01-26T01:51:37.989Z,-1.67
2019-01-26T01:54:07.613Z,-1.69
2019-01-26T01:56:37.219Z,-1.67
2019-01-26T01:59:06.838Z,-1.68
2019-01-26T02:01:36.406Z,-1.70
2019-01-26T02:04:06.237Z,-1.69
2019-01-26T02:06:35.793Z,-1.67
2019-01-26T02:09:07.947Z,-1.67
2019-01-26T02:11:38.555Z,-1.67
2019-01-26T02:14:08.178Z,-1.66
2019-01-26T02:16:37.729Z,-1.63
2019-01-26T02:19:07.655Z,-1.61
2019-01-26T02:21:37.203Z,-1.63
2019-01-26T02:24:06.751Z,-1.65
2019-01-26T02:26:36.324Z,-1.62
2019-01-26T02:29:06.049Z,-1.61
2019-01-26T02:31:35.594Z,-1.59
2019-01-26T02:34:05.768Z,-1.57
2019-01-26T02:36:35.315Z,-1.57
2019-01-26T02:39:07.857Z,-1.56
2019-01-26T02:41:37.431Z,-1.58
2019-01-26T02:44:06.984Z,-1.56
2019-01-26T02:46:36.538Z,-1.58
2019-01-26T02:49:06.122Z,-1.60
2019-01-26T02:51:35.678Z,-1.60
2019-01-26T02:54:05.470Z,-1.60
2019-01-26T02:56:35.012Z,-1.56
2019-01-26T02:59:04.604Z,-1.56
2019-01-26T03:01:34.145Z,-1.57
2019-01-26T03:04:04.066Z,-1.56
2019-01-26T03:06:33.660Z,-1.55
2019-01-26T03:09:04.834Z,-1.54
2019-01-26T03:11:34.380Z,-1.51
2019-01-26T03:14:03.935Z,-1.50
2019-01-26T03:16:33.870Z,-1.48
2019-01-26T03:19:03.561Z,-1.46
2019-01-26T03:21:33.088Z,-1.45
2019-01-26T03:24:02.619Z,-1.44
2019-01-26T03:26:32.272Z,-1.45
2019-01-26T03:29:01.794Z,-1.45
2019-01-26T03:31:31.320Z,-1.47
2019-01-26T03:34:01.036Z,-1.47
2019-01-26T03:36:30.554Z,-1.48
2019-01-26T03:39:00.087Z,-1.47
2019-01-26T03:41:29.698Z,-1.45
2019-01-26T03:43:59.220Z,-1.43
2019-01-26T03:46:28.769Z,-1.43
2019-01-26T03:48:58.322Z,-1.41
2019-01-26T03:51:27.854Z,-1.39
2019-01-26T03:53:57.376Z,-1.38
2019-01-26T03:56:26.933Z,-1.35
2019-01-26T03:58:56.452Z,-1.35
2019-01-26T04:01:25.990Z,-1.32
2019-01-26T04:03:55.625Z,-1.28
2019-01-26T04:06:25.121Z,-1.26
2019-01-26T04:08:54.651Z,-1.24
2019-01-26T04:11:24.208Z,-1.22
2019-01-26T04:13:53.737Z,-1.19
2019-01-26T04:16:23.276Z,-1.15
2019-01-26T04:18:53.193Z,-1.14
2019-01-26T04:21:22.717Z,-1.10
2019-01-26T04:23:52.240Z,-1.07
2019-01-26T04:26:22.038Z,-1.04
2019-01-26T04:28:51.565Z,-1.01
2019-01-26T04:31:21.083Z,-0.97
2019-01-26T04:33:50.651Z,-0.95
2019-01-26T04:36:20.178Z,-0.93
2019-01-26T04:38:49.784Z,-0.89
2019-01-26T04:41:19.340Z,-0.85
2019-01-26T04:43:48.888Z,-0.83
2019-01-26T04:46:18.422Z,-0.82
2019-01-26T04:48:48.105Z,-0.78
2019-01-26T04:51:17.628Z,-0.73
2019-01-26T04:53:47.149Z,-0.67
2019-01-26T04:56:17.058Z,-0.65
2019-01-26T04:58:46.590Z,-0.61
2019-01-26T05:01:16.202Z,-0.58
2019-01-26T05:03:45.739Z,-0.56
2019-01-26T05:06:15.254Z,-0.54
2019-01-26T05:08:44.785Z,-0.51
2019-01-26T05:11:14.680Z,-0.50
2019-01-26T05:13:44.214Z,-0.48
2019-01-26T05:16:13.733Z,-0.45
2019-01-26T05:18:43.285Z,-0.42
2019-01-26T05:21:12.811Z,-0.40
2019-01-26T05:23:42.350Z,-0.40
2019-01-26T05:26:11.876Z,-0.40
2019-01-26T05:28:41.414Z,-0.38
2019-01-26T05:31:11.006Z,-0.37
2019-01-26T05:33:40.632Z,-0.36
2019-01-26T05:36:10.223Z,-0.34
2019-01-26T05:38:39.768Z,-0.33
2019-01-26T05:41:09.302Z,-0.31
2019-01-26T05:43:38.825Z,-0.29
2019-01-26T05:46:08.418Z,-0.29
2019-01-26T05:48:38.039Z,-0.27
2019-01-26T05:51:07.666Z,-0.23
2019-01-26T05:53:37.207Z,-0.21
2019-01-26T05:56:06.758Z,-0.20
2019-01-26T05:58:36.283Z,-0.18
2019-01-26T06:01:06.175Z,-0.18
2019-01-26T06:03:35.895Z,-0.16
2019-01-26T06:06:05.619Z,-0.17
2019-01-26T06:08:35.229Z,-0.15
2019-01-26T06:11:05.395Z,-0.14
2019-01-26T06:13:34.914Z,-0.12
2019-01-26T06:16:04.586Z,-0.10
2019-01-26T06:18:34.502Z,-0.08
2019-01-26T06:21:04.031Z,-0.06
2019-01-26T06:23:33.554Z,-0.03
2019-01-26T06:26:03.733Z,0.00
2019-01-26T06:28:33.272Z,0.04
2019-01-26T06:31:02.783Z,0.07
2019-01-26T06:33:32.350Z,0.10
2019-01-26T06:36:01.873Z,0.14
2019-01-26T06:38:31.391Z,0.17
2019-01-26T06:41:00.950Z,0.18
2019-01-26T06:43:30.465Z,0.20
2019-01-26T06:45:59.982Z,0.23
2019-01-26T06:48:29.859Z,0.24
2019-01-26T06:50:59.376Z,0.27
2019-01-26T06:53:28.913Z,0.29
2019-01-26T06:55:58.536Z,0.29
2019-01-26T06:58:28.062Z,0.31
2019-01-26T07:00:57.582Z,0.33
2019-01-26T07:03:27.241Z,0.37
2019-01-26T07:05:58.526Z,0.37
2019-01-26T07:08:28.063Z,0.38
2019-01-26T07:10:59.863Z,0.38
2019-01-26T07:13:29.437Z,0.40
2019-01-26T07:15:59.725Z,0.43
2019-01-26T07:18:29.294Z,0.46
2019-01-26T07:20:58.871Z,0.51
2019-01-26T07:23:28.394Z,0.53
2019-01-26T07:25:58.123Z,0.58
2019-01-26T07:28:27.640Z,0.61
2019-01-26T07:30:57.172Z,0.66
2019-01-26T07:33:27.031Z,0.70
2019-01-26T07:35:56.567Z,0.73
2019-01-26T07:38:26.212Z,0.78
2019-01-26T07:40:55.744Z,0.82
2019-01-26T07:43:25.348Z,0.89
2019-01-26T07:45:54.857Z,0.94
2019-01-26T07:48:24.594Z,1.00
2019-01-26T07:50:57.037Z,1.04
2019-01-26T07:53:26.633Z,1.08
2019-01-26T07:55:56.250Z,1.13
2019-01-26T07:58:25.853Z,1.17
2019-01-26T08:00:55.448Z,1.20
2019-01-26T08:03:25.007Z,1.23
2019-01-26T08:05:54.532Z,1.26
2019-01-26T08:08:24.051Z,1.30
2019-01-26T08:10:53.621Z,1.34
2019-01-26T08:13:23.587Z,1.36
2019-01-26T08:15:53.231Z,1.39
2019-01-26T08:18:24.142Z,1.42
2019-01-26T08:20:53.941Z,1.46
2019-01-26T08:23:23.448Z,1.49
2019-01-26T08:25:53.189Z,1.51
2019-01-26T08:28:22.709Z,1.54
2019-01-26T08:30:52.292Z,1.57
2019-01-26T08:33:21.943Z,1.59
2019-01-26T08:35:51.516Z,1.63
2019-01-26T08:38:21.073Z,1.65
2019-01-26T08:40:50.590Z,1.69
2019-01-26T08:43:20.136Z,1.74
2019-01-26T08:45:49.642Z,1.78
2019-01-26T08:48:19.171Z,1.81
2019-01-26T08:50:48.777Z,1.84
2019-01-26T08:53:18.287Z,1.87
2019-01-26T08:55:47.904Z,1.91
2019-01-26T08:58:17.503Z,1.94
2019-01-26T09:00:46.992Z,1.97
2019-01-26T09:03:18.495Z,2.01
2019-01-26T09:05:52.148Z,2.04
2019-01-26T09:08:21.949Z,2.08
2019-01-26T09:10:51.458Z,2.11
2019-01-26T09:13:20.971Z,2.12
2019-01-26T09:15:50.580Z,2.14
2019-01-26T09:18:20.407Z,2.18
2019-01-26T09:20:50.054Z,2.23
2019-01-26T09:23:19.578Z,2.28
2019-01-26T09:25:49.159Z,2.32
2019-01-26T09:28:18.855Z,2.35
2019-01-26T09:30:48.469Z,2.40
2019-01-26T09:33:17.998Z,2.43
2019-01-26T09:35:47.516Z,2.49
2019-01-26T09:38:17.098Z,2.52
2019-01-26T09:40:46.631Z,2.55
2019-01-26T09:43:16.222Z,2.57
2019-01-26T09:45:45.761Z,2.59
2019-01-26T09:48:15.431Z,2.60
2019-01-26T09:50:45.060Z,2.60
2019-01-26T09:53:14.581Z,2.63
2019-01-26T09:55:44.102Z,2.65
2019-01-26T09:58:13.695Z,2.68
2019-01-26T10:00:43.289Z,2.71
2019-01-26T10:03:12.909Z,2.75
2019-01-26T10:05:42.422Z,2.79
2019-01-26T10:08:11.954Z,2.84
2019-01-26T10:10:41.473Z,2.90
2019-01-26T10:13:10.990Z,2.98
2019-01-26T10:15:40.558Z,3.02
2019-01-26T10:18:10.172Z,3.09
2019-01-26T10:20:44.041Z,3.14
2019-01-26T10:23:13.559Z,3.21
2019-01-26T10:25:48.549Z,3.27
2019-01-26T10:28:14.527Z,3.32
2019-01-26T10:30:46.316Z,3.36
2019-01-26T10:33:15.884Z,3.42
2019-01-26T10:36:00.227Z,3.47
2019-01-26T10:38:30.505Z,3.52
2019-01-26T10:40:59.853Z,3.55
2019-01-26T10:43:31.028Z,3.59
2019-01-26T10:46:00.554Z,3.61
2019-01-26T10:48:30.080Z,3.65
2019-01-26T10:51:00.177Z,3.69
2019-01-26T10:53:29.816Z,3.72
2019-01-26T10:55:59.335Z,3.75
2019-01-26T10:58:28.846Z,3.77
2019-01-26T11:00:58.389Z,3.79
2019-01-26T11:03:28.032Z,3.81
2019-01-26T11:05:57.565Z,3.86
2019-01-26T11:08:27.082Z,3.92
2019-01-26T11:10:56.616Z,3.97
2019-01-26T11:13:26.135Z,4.00
2019-01-26T11:15:55.662Z,4.01
2019-01-26T11:18:25.216Z,4.03
2019-01-26T11:20:54.693Z,4.05
2019-01-26T11:23:24.221Z,4.08
2019-01-26T11:25:54.202Z,4.09
2019-01-26T11:28:23.740Z,4.15
2019-01-26T11:30:53.246Z,4.20
2019-01-26T11:33:22.759Z,4.26
2019-01-26T11:35:52.450Z,4.31
2019-01-26T11:38:21.963Z,4.36
2019-01-26T11:40:51.508Z,4.38
2019-01-26T11:43:21.022Z,4.40
2019-01-26T11:45:54.988Z,4.41
2019-01-26T11:48:28.614Z,4.41
2019-01-26T11:51:02.567Z,4.40
2019-01-26T11:53:32.191Z,4.38
2019-01-26T11:56:03.414Z,4.38
2019-01-26T11:58:32.949Z,4.39
2019-01-26T12:01:06.919Z,4.42
2019-01-26T12:03:44.146Z,4.44
2019-01-26T12:06:17.928Z,4.46
2019-01-26T12:08:47.504Z,4.48
2019-01-26T12:11:17.390Z,4.49
2019-01-26T12:13:46.903Z,4.47
2019-01-26T12:16:16.432Z,4.45
2019-01-26T12:18:45.949Z,4.47
2019-01-26T12:21:15.469Z,4.48
2019-01-26T12:23:44.976Z,4.49
2019-01-26T12:26:14.562Z,4.51
2019-01-26T12:28:44.141Z,4.51
2019-01-26T12:31:13.728Z,4.51
2019-01-26T12:33:43.249Z,4.48
2019-01-26T12:36:12.764Z,4.45
2019-01-26T12:38:42.289Z,4.41
2019-01-26T12:41:11.825Z,4.38
2019-01-26T12:43:41.340Z,4.37
2019-01-26T12:46:10.877Z,4.34
2019-01-26T12:48:40.383Z,4.33
2019-01-26T12:51:09.971Z,4.34
2019-01-26T12:53:39.479Z,4.34
2019-01-26T12:56:09.040Z,4.35
2019-01-26T12:58:38.561Z,4.36
2019-01-26T13:01:08.306Z,4.35
2019-01-26T13:03:37.853Z,4.31
2019-01-26T13:06:07.479Z,4.26
2019-01-26T13:08:37.010Z,4.25
2019-01-26T13:11:14.115Z,4.26
2019-01-26T13:13:43.644Z,4.25
2019-01-26T13:16:13.805Z,4.21
2019-01-26T13:18:43.862Z,4.21
2019-01-26T13:21:13.378Z,4.21
2019-01-26T13:23:42.925Z,4.20
2019-01-26T13:26:12.486Z,4.19
2019-01-26T13:28:41.995Z,4.21
2019-01-26T13:31:11.527Z,4.22
2019-01-26T13:33:41.037Z,4.23
2019-01-26T13:36:10.646Z,4.22
2019-01-26T13:38:40.154Z,4.22
2019-01-26T13:41:09.739Z,4.21
2019-01-26T13:43:39.293Z,4.18
2019-01-26T13:46:08.788Z,4.16
2019-01-26T13:48:38.757Z,4.16
2019-01-26T13:51:12.911Z,4.17
2019-01-26T13:53:39.511Z,4.17
2019-01-26T13:56:09.042Z,4.16
2019-01-26T13:58:38.545Z,4.14
2019-01-26T14:01:08.078Z,4.15
2019-01-26T14:03:37.581Z,4.14
2019-01-26T14:06:07.658Z,4.14
2019-01-26T14:08:37.343Z,4.16
2019-01-26T14:11:06.842Z,4.19
2019-01-26T14:13:36.442Z,4.20
2019-01-26T14:16:06.284Z,4.22
2019-01-26T14:18:35.824Z,4.22
2019-01-26T14:21:05.420Z,4.22
2019-01-26T14:23:34.986Z,4.22
2019-01-26T14:26:05.166Z,4.21
2019-01-26T14:28:34.695Z,4.21
2019-01-26T14:31:04.719Z,4.21
2019-01-26T14:33:34.236Z,4.21
2019-01-26T14:36:03.755Z,4.19
2019-01-26T14:38:33.267Z,4.16
2019-01-26T14:41:02.779Z,4.17
2019-01-26T14:43:32.586Z,4.10
2019-01-26T14:46:02.082Z,4.05
2019-01-26T14:48:31.590Z,4.00
2019-01-26T14:51:01.149Z,3.96
2019-01-26T14:53:30.666Z,3.93
2019-01-26T14:56:00.253Z,3.88
2019-01-26T14:58:30.011Z,3.83
2019-01-26T15:00:59.525Z,3.78
2019-01-26T15:03:29.032Z,3.75
2019-01-26T15:05:58.653Z,3.72
2019-01-26T15:08:28.160Z,3.68
2019-01-26T15:10:57.686Z,3.62
2019-01-26T15:13:27.219Z,3.59
2019-01-26T15:15:56.771Z,3.53
2019-01-26T15:18:26.317Z,3.51
2019-01-26T15:20:55.878Z,3.46
2019-01-26T15:23:25.649Z,3.42
2019-01-26T15:25:55.163Z,3.40
2019-01-26T15:28:24.761Z,3.38
2019-01-26T15:30:54.346Z,3.34
2019-01-26T15:33:23.988Z,3.32
2019-01-26T15:35:53.528Z,3.32
2019-01-26T15:38:23.032Z,3.30
2019-01-26T15:40:52.542Z,3.27
2019-01-26T15:43:22.241Z,3.24
2019-01-26T15:45:51.753Z,3.23
2019-01-26T15:48:21.262Z,3.19
2019-01-26T15:50:50.800Z,3.19
2019-01-26T15:53:20.296Z,3.18
2019-01-26T15:55:49.841Z,3.15
2019-01-26T15:58:19.347Z,3.13
2019-01-26T16:00:48.856Z,3.11
2019-01-26T16:03:18.379Z,3.07
2019-01-26T16:05:47.890Z,3.05
2019-01-26T16:08:18.013Z,3.03
2019-01-26T16:10:47.523Z,3.01
2019-01-26T16:13:17.027Z,2.98
2019-01-26T16:15:46.551Z,2.96
2019-01-26T16:18:16.307Z,2.95
2019-01-26T16:20:45.890Z,2.94
2019-01-26T16:23:15.388Z,2.93
2019-01-26T16:25:45.113Z,2.91
2019-01-26T16:28:14.782Z,2.91
2019-01-26T16:30:44.303Z,2.90
2019-01-26T16:33:13.835Z,2.90
2019-01-26T16:35:43.350Z,2.91
2019-01-26T16:38:12.990Z,2.92
2019-01-26T16:40:45.268Z,2.91
2019-01-26T16:43:14.767Z,2.89
2019-01-26T16:45:44.740Z,2.89
2019-01-26T16:48:14.320Z,2.86
2019-01-26T16:50:43.851Z,2.83
2019-01-26T16:53:13.429Z,2.80
2019-01-26T16:55:42.982Z,2.80
2019-01-26T16:58:12.748Z,2.82
2019-01-26T17:00:45.489Z,2.81
2019-01-26T17:03:15.137Z,2.81
2019-01-26T17:05:44.817Z,2.81
2019-01-26T17:08:14.424Z,2.81
2019-01-26T17:10:47.388Z,2.84
2019-01-26T17:13:17.305Z,2.85
2019-01-26T17:15:46.866Z,2.85
2019-01-26T17:18:16.391Z,2.85
2019-01-26T17:20:46.010Z,2.87
2019-01-26T17:23:15.671Z,2.86
2019-01-26T17:25:45.202Z,2.86
2019-01-26T17:28:14.770Z,2.83
2019-01-26T17:30:45.019Z,2.82
2019-01-26T17:33:14.556Z,2.81
2019-01-26T17:35:44.168Z,2.80
2019-01-26T17:38:13.676Z,2.78
2019-01-26T17:40:43.189Z,2.78
2019-01-26T17:43:12.731Z,2.77
2019-01-26T17:45:42.256Z,2.78
2019-01-26T17:48:11.866Z,2.79
2019-01-26T17:50:42.281Z,2.80
2019-01-26T17:53:12.202Z,2.80
2019-01-26T17:55:41.733Z,2.80
2019-01-26T17:58:11.340Z,2.78
2019-01-26T18:00:48.270Z,2.75
2019-01-26T18:03:20.538Z,2.77
2019-01-26T18:05:50.208Z,2.77
2019-01-26T18:08:19.738Z,2.76
2019-01-26T18:10:49.593Z,2.78
2019-01-26T18:13:19.140Z,2.78
2019-01-26T18:15:48.675Z,2.78
2019-01-26T18:18:18.274Z,2.75
2019-01-26T18:20:49.282Z,2.75
2019-01-26T18:23:20.660Z,2.74
2019-01-26T18:25:50.443Z,2.73
2019-01-26T18:28:19.975Z,2.74
2019-01-26T18:30:49.519Z,2.74
2019-01-26T18:33:19.033Z,2.72
2019-01-26T18:35:50.417Z,2.70
2019-01-26T18:38:19.942Z,2.69
2019-01-26T18:40:49.712Z,2.67
2019-01-26T18:43:19.254Z,2.66
2019-01-26T18:45:48.843Z,2.65
2019-01-26T18:48:18.589Z,2.63
2019-01-26T18:50:55.905Z,2.63
2019-01-26T18:53:21.295Z,2.63
2019-01-26T18:55:50.851Z,2.63
2019-01-26T18:58:20.446Z,2.64
2019-01-26T19:00:50.001Z,2.63
2019-01-26T19:03:33.049Z,2.62
2019-01-26T19:06:03.091Z,2.61
2019-01-26T19:08:32.631Z,2.59
2019-01-26T19:11:02.153Z,2.57
2019-01-26T19:13:31.683Z,2.58
2019-01-26T19:16:01.200Z,2.61
2019-01-26T19:18:30.732Z,2.60
2019-01-26T19:21:03.438Z,2.60
2019-01-26T19:23:31.791Z,2.62
2019-01-26T19:26:01.309Z,2.63
2019-01-26T19:28:31.203Z,2.65
2019-01-26T19:31:00.725Z,2.65
2019-01-26T19:33:30.241Z,2.65
2019-01-26T19:35:59.805Z,2.64
2019-01-26T19:38:29.394Z,2.64
2019-01-26T19:40:58.927Z,2.64
2019-01-26T19:43:28.615Z,2.65
2019-01-26T19:45:58.142Z,2.64
2019-01-26T19:48:27.655Z,2.64
2019-01-26T19:50:57.272Z,2.62
2019-01-26T19:53:27.027Z,2.63
2019-01-26T19:55:56.869Z,2.62
2019-01-26T19:58:26.707Z,2.64
2019-01-26T20:00:56.295Z,2.65
2019-01-26T20:03:25.883Z,2.66
2019-01-26T20:05:55.431Z,2.67
2019-01-26T20:08:25.108Z,2.65
2019-01-26T20:10:54.637Z,2.67
2019-01-26T20:13:24.182Z,2.69
2019-01-26T20:15:53.718Z,2.70
2019-01-26T20:18:23.319Z,2.71
2019-01-26T20:20:52.916Z,2.69
2019-01-26T20:23:22.446Z,2.68
2019-01-26T20:25:52.055Z,2.69
2019-01-26T20:28:21.977Z,2.70
2019-01-26T20:30:51.579Z,2.68
2019-01-26T20:33:21.271Z,2.67
2019-01-26T20:35:50.979Z,2.70
2019-01-26T20:38:20.565Z,2.72
2019-01-26T20:40:50.109Z,2.75
2019-01-26T20:43:19.982Z,2.78
2019-01-26T20:45:49.518Z,2.84
2019-01-26T20:48:19.116Z,2.88
2019-01-26T20:50:48.663Z,2.90
2019-01-26T20:53:18.176Z,2.93
2019-01-26T20:55:47.920Z,2.97
2019-01-26T20:58:17.803Z,3.00
2019-01-26T21:00:47.561Z,3.03
2019-01-26T21:03:17.173Z,3.07
2019-01-26T21:05:46.784Z,3.13
2019-01-26T21:08:16.653Z,3.17
2019-01-26T21:10:46.360Z,3.21
2019-01-26T21:13:16.597Z,3.25
2019-01-26T21:15:46.358Z,3.29
2019-01-26T21:18:16.232Z,3.33
2019-01-26T21:20:45.898Z,3.35
2019-01-26T21:23:15.430Z,3.39
2019-01-26T21:25:45.070Z,3.44
2019-01-26T21:28:14.824Z,3.46
2019-01-26T21:30:44.336Z,3.51
2019-01-26T21:33:13.859Z,3.54
2019-01-26T21:35:43.469Z,3.58
2019-01-26T21:38:13.245Z,3.62
2019-01-26T21:40:42.785Z,3.63
2019-01-26T21:43:12.312Z,3.66
2019-01-26T21:45:42.097Z,3.70
2019-01-26T21:48:11.954Z,3.73
2019-01-26T21:50:41.561Z,3.76
2019-01-26T21:53:11.070Z,3.78
2019-01-26T21:55:40.849Z,3.80
2019-01-26T21:58:10.366Z,3.82
2019-01-26T22:00:39.987Z,3.83
2019-01-26T22:03:09.685Z,3.85
2019-01-26T22:05:39.640Z,3.87
2019-01-26T22:08:09.293Z,3.90
2019-01-26T22:10:38.817Z,3.93
2019-01-26T22:13:08.733Z,3.94
2019-01-26T22:15:38.330Z,3.97
2019-01-26T22:18:08.061Z,4.00
2019-01-26T22:20:38.135Z,4.04
2019-01-26T22:23:07.879Z,4.06
2019-01-26T22:25:37.417Z,4.08
2019-01-26T22:28:07.151Z,4.11
2019-01-26T22:30:36.814Z,4.11
2019-01-26T22:33:06.584Z,4.13
2019-01-26T22:35:36.275Z,4.13
2019-01-26T22:38:06.402Z,4.12
2019-01-26T22:40:37.015Z,4.12
2019-01-26T22:43:07.076Z,4.11
2019-01-26T22:45:36.746Z,4.12
2019-01-26T22:48:06.523Z,4.13
2019-01-26T22:50:36.460Z,4.12
2019-01-26T22:53:06.430Z,4.12
2019-01-26T22:55:36.367Z,4.11
2019-01-26T22:58:06.386Z,4.12
2019-01-26T23:00:53.579Z,4.12
2019-01-26T23:03:37.446Z,4.13
2019-01-26T23:06:17.436Z,4.14
2019-01-26T23:08:49.185Z,4.15
2019-01-26T23:11:37.874Z,4.14
2019-01-26T23:14:17.819Z,4.14
2019-01-26T23:17:28.668Z,4.14
2019-01-26T23:20:08.758Z,4.15
2019-01-26T23:23:06.750Z,4.16
2019-01-26T23:25:43.830Z,4.15
2019-01-26T23:28:29.467Z,4.15
2019-01-26T23:31:16.992Z,4.16
2019-01-26T23:33:47.728Z,4.16
2019-01-26T23:36:20.263Z,4.15
2019-01-26T23:38:49.152Z,4.15
2019-01-26T23:41:18.927Z,4.15
2019-01-26T23:43:48.450Z,4.15
2019-01-26T23:46:18.149Z,4.12
2019-01-26T23:48:47.692Z,4.11
2019-01-26T23:51:17.289Z,4.11
2019-01-26T23:53:46.898Z,4.09
2019-01-26T23:56:16.840Z,4.07
2019-01-26T23:58:46.318Z,4.06
